Flight Track Log - Related Links

Times and Time Zones

All times are in EDT time to prevent confusion due to time zone crossing. See the DAL1660 flight status page for this flight to view local times or setup timezone preferences in your user account.

Time Position Orientation Groundspeed Altitude Reporting Facility
EDT Latitude Longitude Course Direction KTS MPH feet Rate Location/Type
Thu 08:53:25 PM 33.6167 -84.5000 48° Northeast 213 245 2,900  Level Atlanta TRACON
Thu 08:54:31 PM 33.5833 -84.5833 244° Southwest 266 306 5,600 2,197 Climbing Atlanta TRACON
Thu 08:55:00 PM 33.8443 -84.1671 73° East  Level Estimated
Thu 08:56:00 PM 33.9134 -84.0799 54° Northeast  Level Estimated
Thu 08:56:58 PM 33.4533 -84.4819 147° Southeast 266 306 10,700  Level Atlanta Center
Thu 08:57:00 PM 33.8948 -83.9614 101° East  Level FlightAware
Thu 08:57:58 PM 33.4578 -84.3575 88° East 323 372 12,300  Level Atlanta Center
Thu 08:58:00 PM 33.9645 -83.8748 48° Northeast  Level Estimated
Thu 08:58:58 PM 33.5019 -84.2431 65° Northeast 364 419 14,700  Level Atlanta Center
Thu 08:59:58 PM 33.6022 -84.1833 26° Northeast 367 422 16,800 2,050 Climbing Atlanta Center
Thu 09:00:58 PM 33.7044 -84.1161 29° Northeast 397 457 18,800 1,950 Climbing Atlanta Center
Thu 09:01:58 PM 33.7797 -84.0039 51° Northeast 427 491 20,700 1,700 Climbing Atlanta Center
Thu 09:02:58 PM 33.8464 -83.8786 57° Northeast 439 505 22,200 1,150 Climbing Atlanta Center
Thu 09:03:58 PM 33.9169 -83.7433 58° Northeast 459 528 23,000 1,000 Climbing Atlanta Center
Thu 09:04:58 PM 33.9939 -83.6178 54° Northeast 464 534 24,200 1,500 Climbing Atlanta Center
Thu 09:05:58 PM 34.0728 -83.4894 53° Northeast 475 547 26,000 1,650 Climbing Atlanta Center
Thu 09:06:58 PM 34.1536 -83.3661 52° Northeast 475 547 27,500 1,650 Climbing Atlanta Center
Thu 09:07:58 PM 34.2300 -83.2397 54° Northeast 475 547 29,300 1,600 Climbing Atlanta Center
Thu 09:08:58 PM 34.3144 -83.1031 53° Northeast 469 540 30,700 850 Climbing Atlanta Center
Thu 09:09:58 PM 34.3908 -82.9817 53° Northeast 464 534 31,000 250 Climbing Atlanta Center
Thu 09:10:58 PM 34.4689 -82.8569 53° Northeast 452 520 31,200 600 Climbing Atlanta Center
Thu 09:11:58 PM 34.5408 -82.7375 54° Northeast 452 520 32,200 1,000 Climbing Atlanta Center
Thu 09:12:58 PM 34.6125 -82.6128 55° Northeast 452 520 33,200 850 Climbing Atlanta Center
Thu 09:13:58 PM 34.6800 -82.5081 52° Northeast 444 511 33,900 900 Climbing Atlanta Center
Thu 09:14:58 PM 34.7517 -82.3881 54° Northeast 439 505 35,000 550 Climbing Atlanta Center
Thu 09:15:58 PM 34.8231 -82.2728 53° Northeast 439 505 35,000  Level Atlanta Center
Thu 09:16:58 PM 34.8942 -82.1522 54° Northeast 439 505 35,000  Level Atlanta Center
Thu 09:17:58 PM 34.9756 -82.0261 52° Northeast 434 499 35,000 -400 Level Atlanta Center
Thu 09:18:58 PM 35.0447 -81.9078 54° Northeast 434 499 34,200 -1,000 Descending Atlanta Center
Thu 09:19:58 PM 35.1111 -81.7817 57° Northeast 434 499 33,000 -600 Descending Atlanta Center
Thu 09:20:58 PM 35.1778 -81.6578 57° Northeast 439 505 33,000  Level Atlanta Center
Thu 09:21:58 PM 35.2439 -81.5286 58° Northeast 446 513 33,000  Level Atlanta Center
Thu 09:22:58 PM 35.3042 -81.4150 57° Northeast 446 513 33,000  Level Atlanta Center
Thu 09:23:58 PM 35.3681 -81.2856 59° Northeast 446 513 33,000  Level Atlanta Center
Thu 09:24:58 PM 35.4361 -81.1558 57° Northeast 446 513 33,000  Level Atlanta Center
Thu 09:25:58 PM 35.5119 -81.0128 57° Northeast 446 513 33,000  Level Atlanta Center
Thu 09:26:58 PM 35.5775 -80.8853 58° Northeast 446 513 33,000  Level Atlanta Center
Thu 09:27:58 PM 35.6372 -80.7731 57° Northeast 446 513 33,000  Level Atlanta Center
Thu 09:28:58 PM 35.7067 -80.6450 56° Northeast 446 513 33,000  Level Atlanta Center
Thu 09:29:58 PM 35.7719 -80.5169 58° Northeast 446 513 33,000  Level Atlanta Center
Thu 09:32:18 PM 35.9250 -80.2142 58° Northeast 445 512 33,000  Level Washington Center
Thu 09:33:18 PM 35.9969 -80.0747 57° Northeast 440 506 33,000  Level Washington Center
Thu 09:34:19 PM 36.0622 -79.9497 57° Northeast 435 501 33,000  Level Washington Center
Thu 09:35:18 PM 36.1356 -79.8228 54° Northeast 435 501 33,000  Level Washington Center
Thu 09:36:19 PM 36.1981 -79.7053 57° Northeast 448 516 33,000  Level Washington Center
Thu 09:37:19 PM 36.2756 -79.5700 55° Northeast 448 516 33,000 -661 Level Washington Center
Thu 09:38:17 PM 36.3486 -79.4447 54° Northeast 443 510 31,700 -1,261 Descending Washington Center
Thu 09:39:18 PM 36.4153 -79.3192 57° Northeast 443 510 30,500 -1,140 Descending Washington Center
Thu 09:40:18 PM 36.4858 -79.1958 55° Northeast 438 504 29,400 -744 Descending Washington Center
Thu 09:41:19 PM 36.5583 -79.0700 54° Northeast 438 504 29,000 -200 Descending Washington Center
Thu 09:42:18 PM 36.6286 -78.9461 55° Northeast 438 504 29,000  Level Washington Center
Thu 09:43:18 PM 36.6903 -78.8244 58° Northeast 438 504 29,000  Level Washington Center
Thu 09:44:19 PM 36.7692 -78.6878 54° Northeast 443 510 29,000 -446 Level Washington Center
Thu 09:45:19 PM 36.8369 -78.5608 56° Northeast 443 510 28,100 -508 Descending Washington Center
Thu 09:46:17 PM 36.9089 -78.4389 54° Northeast 437 503 28,000 -202 Descending Washington Center
Thu 09:47:18 PM 36.9719 -78.3217 56° Northeast 438 504 27,700 -496 Descending Washington Center
Thu 09:48:18 PM 37.0417 -78.1939 56° Northeast 438 504 27,000 -347 Descending Washington Center
Thu 09:49:19 PM 37.1092 -78.0661 56° Northeast 433 498 27,000  Level Washington Center
Thu 09:50:19 PM 37.1783 -77.9328 57° Northeast 438 504 27,000  Level Washington Center
Thu 09:51:17 PM 37.2700 -77.8364 40° Northeast 438 504 27,000 -153 Level Washington Center
Thu 09:52:17 PM 37.3775 -77.7689 27° Northeast 420 483 26,700 -1,140 Descending Washington Center
Thu 09:53:18 PM 37.4831 -77.7064 25° Northeast 420 483 24,700 -1,835 Descending Washington Center
Thu 09:54:18 PM 37.5864 -77.6411 27° Northeast 415 478 23,000 -843 Descending Washington Center
Thu 09:55:19 PM 37.6897 -77.5811 25° Northeast 408 470 23,000  Level Washington Center
Thu 09:56:17 PM 37.7908 -77.5128 28° Northeast 408 470 23,000  Level Washington Center
Thu 09:57:18 PM 37.8939 -77.4494 26° Northeast 408 470 23,000 -248 Level Washington Center
Thu 09:58:18 PM 37.9931 -77.3861 27° Northeast 408 470 22,500 -1,289 Descending Washington Center
Thu 09:59:19 PM 38.0919 -77.3253 26° Northeast 398 458 20,400 -2,067 Descending Washington Center
Thu 10:00:17 PM 38.1886 -77.2639 27° Northeast 392 451 18,400 -2,288 Descending Washington Center
Thu 10:01:17 PM 38.2814 -77.2025 27° Northeast 381 438 15,900 -1,672 Descending Washington Center
Thu 10:02:19 PM 38.3758 -77.1383 28° Northeast 381 438 15,000 -1,250 Descending Washington Center
Thu 10:03:17 PM 38.4542 -77.0525 41° Northeast 371 427 13,400 -1,613 Descending Washington Center
Thu 10:04:18 PM 38.5283 -76.9611 44° Northeast 366 421 11,800 -1,289 Descending Washington Center
Thu 10:05:18 PM 38.5958 -76.8800 43° Northeast 347 399 10,800 -893 Descending Washington Center
Thu 10:06:19 PM 38.6569 -76.8067 43° Northeast 321 369 10,000 -900 Descending Washington Center
Thu 10:07:18 PM 38.7097 -76.7383 45° Northeast 289 333 9,000 -1,250 Descending Washington Center
Thu 10:08:19 PM 38.7481 -76.6536 60° Northeast 278 320 7,500 -1,429 Descending Washington Center
Thu 10:09:24 PM 38.8167 -76.5667 45° Northeast 264 304 6,000 -1,056 Descending Potomac TRACON
Thu 10:10:24 PM 38.8833 -76.5500 11° North 238 274 5,300 -952 Descending Potomac TRACON
Thu 10:11:30 PM 38.9500 -76.5667 349° North 223 257 4,000 -1,182 Descending Potomac TRACON

Login

Don't have an account? Register now (free) for customized features, flight alerts, and more!